Terminal Aerodrome Forecast
Issued by NWS Rapid City, SD

Home | Current Version | Previous Version | Graphics & Text | Print | Product List | Glossary On
Versions: 1 2 3 4 5 6 7 8 9 10 11 12 13 14 15 16 17 18 19 20 21 22 23 24 25 26 27 28 29 30 31 32 33 34
000
FTUS43 KUNR 251725
TAFRAP
TAF
KRAP 251725Z 2518/2618 01012KT P6SM VCSH BKN025 OVC040
     FM260300 VRB05KT P6SM OVC020
     FM261100 VRB05KT 1SM BR VV006
     FM261400 15010KT P6SM SCT012 SCT025 BKN040=

USA.gov is the U.S. government's official web portal to all federal, state and local government web resources and services.